sensor_id;sensor_type;location;lat;lon;timestamp;pressure;altitude;pressure_sealevel;temperature;humidity
17260;BME280;8746;49.230;9.220;2022-10-18T00:02:11;100888.81;;;12.12;100.00
17260;BME280;8746;49.230;9.220;2022-10-18T00:04:36;100886.88;;;12.17;100.00
17260;BME280;8746;49.230;9.220;2022-10-18T00:07:02;100892.09;;;12.20;100.00
17260;BME280;8746;49.230;9.220;2022-10-18T00:09:28;100886.94;;;12.15;100.00
17260;BME280;8746;49.230;9.220;2022-10-18T00:11:54;100882.94;;;12.02;100.00
17260;BME280;8746;49.230;9.220;2022-10-18T00:14:20;100894.22;;;12.07;100.00
17260;BME280;8746;49.230;9.220;2022-10-18T00:16:45;100898.63;;;12.08;100.00
17260;BME280;8746;49.230;9.220;2022-10-18T00:19:11;100890.19;;;11.94;100.00
17260;BME280;8746;49.230;9.220;2022-10-18T00:21:36;100903.00;;;12.09;100.00
17260;BME280;8746;49.230;9.220;2022-10-18T00:24:02;100909.50;;;12.27;100.00
17260;BME280;8746;49.230;9.220;2022-10-18T00:26:29;100893.81;;;12.21;100.00
17260;BME280;8746;49.230;9.220;2022-10-18T00:28:57;100896.03;;;12.07;100.00
17260;BME280;8746;49.230;9.220;2022-10-18T00:31:25;100910.09;;;12.07;100.00
17260;BME280;8746;49.230;9.220;2022-10-18T00:33:55;100901.22;;;12.10;100.00
17260;BME280;8746;49.230;9.220;2022-10-18T00:36:21;100897.00;;;12.04;100.00
17260;BME280;8746;49.230;9.220;2022-10-18T00:38:46;100904.69;;;12.12;100.00
17260;BME280;8746;49.230;9.220;2022-10-18T00:41:15;100897.78;;;12.06;100.00
17260;BME280;8746;49.230;9.220;2022-10-18T00:44:00;100896.03;;;12.07;100.00
17260;BME280;8746;49.230;9.220;2022-10-18T00:46:32;100896.88;;;12.07;100.00
17260;BME280;8746;49.230;9.220;2022-10-18T00:49:00;100890.81;;;12.03;100.00
17260;BME280;8746;49.230;9.220;2022-10-18T00:51:33;100894.59;;;11.95;100.00
17260;BME280;8746;49.230;9.220;2022-10-18T00:54:00;100896.09;;;12.03;100.00
17260;BME280;8746;49.230;9.220;2022-10-18T00:56:25;100894.00;;;12.15;100.00
17260;BME280;8746;49.230;9.220;2022-10-18T00:58:51;100901.00;;;12.16;100.00
17260;BME280;8746;49.230;9.220;2022-10-18T01:01:16;100895.13;;;12.06;100.00
17260;BME280;8746;49.230;9.220;2022-10-18T01:03:42;100907.31;;;12.12;100.00
17260;BME280;8746;49.230;9.220;2022-10-18T01:06:08;100908.94;;;12.16;100.00
17260;BME280;8746;49.230;9.220;2022-10-18T01:08:45;100901.00;;;12.16;100.00
17260;BME280;8746;49.230;9.220;2022-10-18T01:16:38;100901.97;;;12.13;100.00
17260;BME280;8746;49.230;9.220;2022-10-18T01:22:06;100908.41;;;12.05;100.00
17260;BME280;8746;49.230;9.220;2022-10-18T01:32:50;100905.63;;;12.38;100.00
17260;BME280;8746;49.230;9.220;2022-10-18T01:35:25;100905.63;;;12.38;100.00
17260;BME280;8746;49.230;9.220;2022-10-18T01:37:55;100901.41;;;12.32;100.00
17260;BME280;8746;49.230;9.220;2022-10-18T01:40:23;100903.03;;;12.36;100.00
17260;BME280;8746;49.230;9.220;2022-10-18T01:42:49;100901.16;;;12.40;100.00
17260;BME280;8746;49.230;9.220;2022-10-18T01:45:15;100904.63;;;12.42;100.00
17260;BME280;8746;49.230;9.220;2022-10-18T01:47:45;100897.59;;;12.41;100.00
17260;BME280;8746;49.230;9.220;2022-10-18T01:50:11;100895.72;;;12.44;100.00
17260;BME280;8746;49.230;9.220;2022-10-18T01:52:47;100894.63;;;12.50;100.00
17260;BME280;8746;49.230;9.220;2022-10-18T01:55:13;100895.38;;;12.55;100.00
17260;BME280;8746;49.230;9.220;2022-10-18T01:57:43;100898.88;;;12.56;100.00
17260;BME280;8746;49.230;9.220;2022-10-18T02:02:52;100883.84;;;12.56;100.00
17260;BME280;8746;49.230;9.220;2022-10-18T02:05:36;100878.34;;;12.62;100.00
17260;BME280;8746;49.230;9.220;2022-10-18T02:11:07;100880.19;;;12.60;100.00
17260;BME280;8746;49.230;9.220;2022-10-18T02:13:39;100879.22;;;12.63;100.00
17260;BME280;8746;49.230;9.220;2022-10-18T02:16:13;100878.53;;;12.56;100.00
17260;BME280;8746;49.230;9.220;2022-10-18T02:18:45;100880.41;;;12.54;100.00
17260;BME280;8746;49.230;9.220;2022-10-18T02:21:16;100867.09;;;12.56;100.00
17260;BME280;8746;49.230;9.220;2022-10-18T02:23:44;100873.25;;;12.56;100.00
17260;BME280;8746;49.230;9.220;2022-10-18T02:26:10;100874.19;;;12.55;100.00
17260;BME280;8746;49.230;9.220;2022-10-18T02:28:36;100870.59;;;12.56;100.00
17260;BME280;8746;49.230;9.220;2022-10-18T02:31:28;100872.03;;;12.66;100.00
17260;BME280;8746;49.230;9.220;2022-10-18T02:33:59;100868.63;;;12.63;100.00
17260;BME280;8746;49.230;9.220;2022-10-18T02:36:32;100870.31;;;12.65;100.00
17260;BME280;8746;49.230;9.220;2022-10-18T02:39:03;100864.09;;;12.66;100.00
17260;BME280;8746;49.230;9.220;2022-10-18T02:41:30;100870.25;;;12.67;100.00
17260;BME280;8746;49.230;9.220;2022-10-18T02:43:56;100867.38;;;12.73;100.00
17260;BME280;8746;49.230;9.220;2022-10-18T02:46:22;100870.66;;;12.81;100.00
17260;BME280;8746;49.230;9.220;2022-10-18T02:48:47;100860.53;;;12.68;100.00
17260;BME280;8746;49.230;9.220;2022-10-18T02:51:13;100860.63;;;12.64;100.00
17260;BME280;8746;49.230;9.220;2022-10-18T02:53:38;100843.94;;;12.62;100.00
17260;BME280;8746;49.230;9.220;2022-10-18T02:56:04;100855.25;;;12.68;100.00
17260;BME280;8746;49.230;9.220;2022-10-18T02:58:29;100835.50;;;12.51;100.00
17260;BME280;8746;49.230;9.220;2022-10-18T03:00:55;100834.38;;;12.58;100.00
17260;BME280;8746;49.230;9.220;2022-10-18T03:03:20;100834.59;;;12.52;100.00
17260;BME280;8746;49.230;9.220;2022-10-18T03:05:50;100844.19;;;12.55;100.00
17260;BME280;8746;49.230;9.220;2022-10-18T03:08:15;100839.94;;;12.76;100.00
17260;BME280;8746;49.230;9.220;2022-10-18T03:10:45;100847.25;;;12.69;100.00
17260;BME280;8746;49.230;9.220;2022-10-18T03:13:11;100830.31;;;12.73;100.00
17260;BME280;8746;49.230;9.220;2022-10-18T03:15:37;100840.00;;;12.74;100.00
17260;BME280;8746;49.230;9.220;2022-10-18T03:18:02;100838.97;;;12.78;100.00
17260;BME280;8746;49.230;9.220;2022-10-18T03:20:28;100833.19;;;12.92;100.00
17260;BME280;8746;49.230;9.220;2022-10-18T03:22:53;100841.06;;;12.94;100.00
17260;BME280;8746;49.230;9.220;2022-10-18T03:25:18;100833.06;;;12.95;100.00
17260;BME280;8746;49.230;9.220;2022-10-18T03:27:44;100838.59;;;12.89;100.00
17260;BME280;8746;49.230;9.220;2022-10-18T03:30:10;100854.59;;;12.86;100.00
17260;BME280;8746;49.230;9.220;2022-10-18T03:32:36;100834.09;;;12.91;100.00
17260;BME280;8746;49.230;9.220;2022-10-18T03:35:03;100844.75;;;12.90;100.00
17260;BME280;8746;49.230;9.220;2022-10-18T03:37:29;100835.16;;;12.87;100.00
17260;BME280;8746;49.230;9.220;2022-10-18T03:39:54;100835.25;;;12.84;100.00
17260;BME280;8746;49.230;9.220;2022-10-18T03:42:19;100837.78;;;12.87;100.00
17260;BME280;8746;49.230;9.220;2022-10-18T03:44:45;100837.66;;;12.90;100.00
17260;BME280;8746;49.230;9.220;2022-10-18T03:47:10;100844.00;;;12.86;100.00
17260;BME280;8746;49.230;9.220;2022-10-18T03:49:37;100842.97;;;12.90;100.00
17260;BME280;8746;49.230;9.220;2022-10-18T03:52:02;100855.34;;;12.90;100.00
17260;BME280;8746;49.230;9.220;2022-10-18T03:54:28;100842.81;;;12.95;100.00
17260;BME280;8746;49.230;9.220;2022-10-18T03:56:53;100845.47;;;12.95;100.00
17260;BME280;8746;49.230;9.220;2022-10-18T03:59:19;100850.91;;;12.90;100.00
17260;BME280;8746;49.230;9.220;2022-10-18T04:01:44;100854.38;;;12.92;100.00
17260;BME280;8746;49.230;9.220;2022-10-18T04:04:09;100861.34;;;12.95;100.00
17260;BME280;8746;49.230;9.220;2022-10-18T04:06:35;100855.78;;;13.03;100.00
17260;BME280;8746;49.230;9.220;2022-10-18T04:09:00;100855.78;;;13.03;100.00
17260;BME280;8746;49.230;9.220;2022-10-18T04:11:25;100850.69;;;12.96;100.00
17260;BME280;8746;49.230;9.220;2022-10-18T04:13:51;100856.13;;;12.93;100.00
17260;BME280;8746;49.230;9.220;2022-10-18T04:16:16;100844.59;;;12.94;100.00
17260;BME280;8746;49.230;9.220;2022-10-18T04:18:42;100853.41;;;12.95;100.00
17260;BME280;8746;49.230;9.220;2022-10-18T04:21:07;100861.28;;;12.96;100.00
17260;BME280;8746;49.230;9.220;2022-10-18T04:23:32;100859.25;;;13.05;100.00
17260;BME280;8746;49.230;9.220;2022-10-18T04:25:58;100863.28;;;13.15;100.00
17260;BME280;8746;49.230;9.220;2022-10-18T04:28:23;100857.28;;;13.10;100.00
17260;BME280;8746;49.230;9.220;2022-10-18T04:30:52;100849.25;;;13.11;100.00
17260;BME280;8746;49.230;9.220;2022-10-18T04:33:18;100856.81;;;12.98;100.00
17260;BME280;8746;49.230;9.220;2022-10-18T04:35:45;100856.97;;;12.94;100.00
17260;BME280;8746;49.230;9.220;2022-10-18T04:38:10;100869.34;;;12.93;100.00
17260;BME280;8746;49.230;9.220;2022-10-18T04:40:36;100873.75;;;12.94;100.00
17260;BME280;8746;49.230;9.220;2022-10-18T04:43:01;100875.56;;;12.92;100.00
17260;BME280;8746;49.230;9.220;2022-10-18T04:45:27;100877.19;;;12.96;100.00
17260;BME280;8746;49.230;9.220;2022-10-18T04:47:52;100877.88;;;13.02;100.00
17260;BME280;8746;49.230;9.220;2022-10-18T04:50:17;100882.97;;;13.08;100.00
17260;BME280;8746;49.230;9.220;2022-10-18T04:52:43;100878.41;;;13.11;100.00
17260;BME280;8746;49.230;9.220;2022-10-18T04:55:08;100880.13;;;13.14;100.00
17260;BME280;8746;49.230;9.220;2022-10-18T04:57:34;100881.78;;;13.17;100.00
17260;BME280;8746;49.230;9.220;2022-10-18T04:59:59;100875.66;;;13.14;100.00
17260;BME280;8746;49.230;9.220;2022-10-18T05:02:24;100876.84;;;13.31;100.00
17260;BME280;8746;49.230;9.220;2022-10-18T05:04:50;100868.41;;;13.20;100.00
17260;BME280;8746;49.230;9.220;2022-10-18T05:07:15;100868.75;;;13.10;100.00
17260;BME280;8746;49.230;9.220;2022-10-18T05:09:41;100872.63;;;13.00;100.00
17260;BME280;8746;49.230;9.220;2022-10-18T05:12:06;100872.53;;;13.03;100.00
17260;BME280;8746;49.230;9.220;2022-10-18T05:14:32;100871.66;;;13.03;100.00
17260;BME280;8746;49.230;9.220;2022-10-18T05:16:57;100871.78;;;12.99;100.00
17260;BME280;8746;49.230;9.220;2022-10-18T05:19:23;100862.81;;;13.04;100.00
17260;BME280;8746;49.230;9.220;2022-10-18T05:21:48;100865.97;;;13.13;100.00
17260;BME280;8746;49.230;9.220;2022-10-18T05:24:13;100863.28;;;13.15;100.00
17260;BME280;8746;49.230;9.220;2022-10-18T05:26:39;100866.03;;;13.12;100.00
17260;BME280;8746;49.230;9.220;2022-10-18T05:29:04;100859.94;;;13.10;100.00
17260;BME280;8746;49.230;9.220;2022-10-18T05:31:30;100862.50;;;13.11;100.00
17260;BME280;8746;49.230;9.220;2022-10-18T05:33:55;100857.06;;;13.16;100.00
17260;BME280;8746;49.230;9.220;2022-10-18T05:36:20;100864.22;;;13.14;100.00
17260;BME280;8746;49.230;9.220;2022-10-18T05:38:46;100858.94;;;13.12;100.00
17260;BME280;8746;49.230;9.220;2022-10-18T05:41:12;100857.28;;;13.10;100.00
17260;BME280;8746;49.230;9.220;2022-10-18T05:43:39;100868.00;;;13.07;100.00
17260;BME280;8746;49.230;9.220;2022-10-18T05:46:05;100873.19;;;13.10;100.00
17260;BME280;8746;49.230;9.220;2022-10-18T05:48:32;100870.47;;;13.11;100.00
17260;BME280;8746;49.230;9.220;2022-10-18T05:50:58;100868.75;;;13.10;100.00
17260;BME280;8746;49.230;9.220;2022-10-18T05:53:24;100868.78;;;13.09;100.00
17260;BME280;8746;49.230;9.220;2022-10-18T05:55:49;100874.28;;;13.04;100.00
17260;BME280;8746;49.230;9.220;2022-10-18T05:58:15;100867.13;;;13.06;100.00
17260;BME280;8746;49.230;9.220;2022-10-18T06:00:40;100868.22;;;13.01;100.00
17260;BME280;8746;49.230;9.220;2022-10-18T06:03:06;100873.53;;;13.01;100.00
17260;BME280;8746;49.230;9.220;2022-10-18T06:05:31;100876.38;;;12.94;100.00
17260;BME280;8746;49.230;9.220;2022-10-18T06:07:57;100881.56;;;12.97;100.00
17260;BME280;8746;49.230;9.220;2022-10-18T06:10:22;100878.09;;;12.95;100.00
17260;BME280;8746;49.230;9.220;2022-10-18T06:12:47;100877.94;;;13.00;100.00
17260;BME280;8746;49.230;9.220;2022-10-18T06:15:13;100888.47;;;13.02;100.00
17260;BME280;8746;49.230;9.220;2022-10-18T06:17:38;100880.44;;;13.05;100.00
17260;BME280;8746;49.230;9.220;2022-10-18T06:20:04;100880.34;;;13.08;100.00
17260;BME280;8746;49.230;9.220;2022-10-18T06:22:29;100880.91;;;13.16;100.00
17260;BME280;8746;49.230;9.220;2022-10-18T06:24:55;100881.72;;;13.18;100.00
17260;BME280;8746;49.230;9.220;2022-10-18T06:27:20;100872.84;;;13.19;100.00
17260;BME280;8746;49.230;9.220;2022-10-18T06:29:46;100886.31;;;13.38;100.00
17260;BME280;8746;49.230;9.220;2022-10-18T06:32:11;100883.63;;;13.40;100.00
17260;BME280;8746;49.230;9.220;2022-10-18T06:34:36;100886.84;;;13.48;100.00
17260;BME280;8746;49.230;9.220;2022-10-18T06:37:02;100884.94;;;13.52;100.00
17260;BME280;8746;49.230;9.220;2022-10-18T06:39:27;100887.16;;;13.64;100.00
17260;BME280;8746;49.230;9.220;2022-10-18T06:41:52;100891.03;;;13.77;100.00
17260;BME280;8746;49.230;9.220;2022-10-18T06:44:19;100884.56;;;13.85;100.00
17260;BME280;8746;49.230;9.220;2022-10-18T06:46:45;100894.91;;;13.92;100.00
17260;BME280;8746;49.230;9.220;2022-10-18T06:49:12;100891.09;;;14.00;100.00
17260;BME280;8746;49.230;9.220;2022-10-18T06:51:38;100890.09;;;14.02;100.00
17260;BME280;8746;49.230;9.220;2022-10-18T06:54:04;100898.72;;;14.07;100.00
17260;BME280;8746;49.230;9.220;2022-10-18T06:56:29;100902.00;;;14.14;100.00
17260;BME280;8746;49.230;9.220;2022-10-18T06:58:54;100900.53;;;14.07;100.00
17260;BME280;8746;49.230;9.220;2022-10-18T07:01:20;100899.22;;;14.17;100.00
17260;BME280;8746;49.230;9.220;2022-10-18T07:03:47;100905.09;;;14.25;100.00
17260;BME280;8746;49.230;9.220;2022-10-18T07:06:15;100893.56;;;14.26;100.00
17260;BME280;8746;49.230;9.220;2022-10-18T07:08:41;100889.84;;;14.08;100.00
17260;BME280;8746;49.230;9.220;2022-10-18T07:11:07;100901.31;;;14.09;100.00
17260;BME280;8746;49.230;9.220;2022-10-18T07:13:34;100907.63;;;14.29;100.00
17260;BME280;8746;49.230;9.220;2022-10-18T07:16:07;100912.75;;;14.33;100.00
17260;BME280;8746;49.230;9.220;2022-10-18T07:18:35;100923.53;;;14.29;100.00
17260;BME280;8746;49.230;9.220;2022-10-18T07:21:05;100920.97;;;14.27;100.00
17260;BME280;8746;49.230;9.220;2022-10-18T07:23:32;100940.97;;;14.36;100.00
17260;BME280;8746;49.230;9.220;2022-10-18T07:25:58;100934.47;;;14.43;100.00
17260;BME280;8746;49.230;9.220;2022-10-18T07:28:23;100927.91;;;14.52;100.00
17260;BME280;8746;49.230;9.220;2022-10-18T07:30:48;100924.78;;;14.42;100.00
17260;BME280;8746;49.230;9.220;2022-10-18T07:33:14;100924.16;;;14.57;100.00
17260;BME280;8746;49.230;9.220;2022-10-18T07:35:39;100932.56;;;14.69;100.00
17260;BME280;8746;49.230;9.220;2022-10-18T07:38:04;100933.31;;;14.72;100.00
17260;BME280;8746;49.230;9.220;2022-10-18T07:40:30;100939.22;;;14.57;100.00
17260;BME280;8746;49.230;9.220;2022-10-18T07:42:55;100932.19;;;14.56;100.00
17260;BME280;8746;49.230;9.220;2022-10-18T07:45:20;100932.78;;;14.63;100.00
17260;BME280;8746;49.230;9.220;2022-10-18T07:47:46;100936.38;;;14.62;100.00
17260;BME280;8746;49.230;9.220;2022-10-18T07:50:11;100939.63;;;14.70;100.00
17260;BME280;8746;49.230;9.220;2022-10-18T07:52:36;100939.34;;;14.76;100.00
17260;BME280;8746;49.230;9.220;2022-10-18T07:55:02;100938.38;;;14.79;100.00
17260;BME280;8746;49.230;9.220;2022-10-18T07:57:27;100928.09;;;14.92;100.00
17260;BME280;8746;49.230;9.220;2022-10-18T07:59:53;100934.19;;;14.94;100.00
17260;BME280;8746;49.230;9.220;2022-10-18T08:02:22;100942.03;;;14.97;100.00
17260;BME280;8746;49.230;9.220;2022-10-18T08:04:47;100932.25;;;14.97;100.00
17260;BME280;8746;49.230;9.220;2022-10-18T08:07:13;100941.78;;;15.03;100.00
17260;BME280;8746;49.230;9.220;2022-10-18T08:09:38;100947.47;;;15.14;100.00
17260;BME280;8746;49.230;9.220;2022-10-18T08:12:04;100946.22;;;15.23;100.00
17260;BME280;8746;49.230;9.220;2022-10-18T08:14:29;100954.16;;;15.25;100.00
17260;BME280;8746;49.230;9.220;2022-10-18T08:16:55;100954.41;;;15.39;100.00
17260;BME280;8746;49.230;9.220;2022-10-18T08:19:20;100956.84;;;15.44;100.00
17260;BME280;8746;49.230;9.220;2022-10-18T08:21:45;100952.78;;;15.55;100.00
17260;BME280;8746;49.230;9.220;2022-10-18T08:24:11;100957.16;;;15.57;100.00
17260;BME280;8746;49.230;9.220;2022-10-18T08:26:36;100962.84;;;15.49;97.82
17260;BME280;8746;49.230;9.220;2022-10-18T08:29:02;100967.81;;;15.57;97.77
17260;BME280;8746;49.230;9.220;2022-10-18T08:31:27;100969.84;;;15.70;97.03
17260;BME280;8746;49.230;9.220;2022-10-18T08:33:54;100956.09;;;16.00;95.73
17260;BME280;8746;49.230;9.220;2022-10-18T08:36:21;100974.16;;;16.13;93.90
17260;BME280;8746;49.230;9.220;2022-10-18T08:38:46;100967.41;;;16.25;94.64
17260;BME280;8746;49.230;9.220;2022-10-18T08:44:40;100956.25;;;16.16;94.92
17260;BME280;8746;49.230;9.220;2022-10-18T08:47:14;100966.78;;;15.99;96.34
17260;BME280;8746;49.230;9.220;2022-10-18T08:49:49;100970.75;;;15.90;97.15
17260;BME280;8746;49.230;9.220;2022-10-18T08:55:30;100983.28;;;15.88;97.68
17260;BME280;8746;49.230;9.220;2022-10-18T08:58:01;100995.44;;;15.73;98.71
17260;BME280;8746;49.230;9.220;2022-10-18T09:00:30;100991.41;;;15.64;99.11
17260;BME280;8746;49.230;9.220;2022-10-18T09:05:51;100981.03;;;15.58;100.00
17260;BME280;8746;49.230;9.220;2022-10-18T09:08:24;100978.25;;;15.61;100.00
17260;BME280;8746;49.230;9.220;2022-10-18T09:11:16;100969.31;;;15.83;100.00
17260;BME280;8746;49.230;9.220;2022-10-18T09:14:01;100971.63;;;15.91;100.00
17260;BME280;8746;49.230;9.220;2022-10-18T09:16:53;100973.78;;;15.82;100.00
17260;BME280;8746;49.230;9.220;2022-10-18T09:19:49;100976.38;;;16.03;100.00
17260;BME280;8746;49.230;9.220;2022-10-18T09:22:24;100970.06;;;16.25;100.00
17260;BME280;8746;49.230;9.220;2022-10-18T09:25:05;100972.75;;;16.42;100.00
17260;BME280;8746;49.230;9.220;2022-10-18T09:27:47;100968.38;;;16.78;100.00
17260;BME280;8746;49.230;9.220;2022-10-18T09:30:24;100980.84;;;16.77;100.00
17260;BME280;8746;49.230;9.220;2022-10-18T09:32:59;100966.13;;;17.05;100.00
17260;BME280;8746;49.230;9.220;2022-10-18T09:35:29;100969.56;;;17.25;95.93
17260;BME280;8746;49.230;9.220;2022-10-18T09:38:09;100969.66;;;17.23;96.31
17260;BME280;8746;49.230;9.220;2022-10-18T09:40:46;100967.38;;;17.33;95.36
17260;BME280;8746;49.230;9.220;2022-10-18T09:43:18;100961.84;;;17.20;95.19
17260;BME280;8746;49.230;9.220;2022-10-18T09:45:46;100962.97;;;17.32;95.25
17260;BME280;8746;49.230;9.220;2022-10-18T09:48:17;100959.56;;;17.30;95.71
17260;BME280;8746;49.230;9.220;2022-10-18T09:50:56;100964.81;;;17.65;94.51
17260;BME280;8746;49.230;9.220;2022-10-18T09:53:49;100957.16;;;18.40;91.27
17260;BME280;8746;49.230;9.220;2022-10-18T09:56:23;100961.50;;;18.73;90.19
17260;BME280;8746;49.230;9.220;2022-10-18T09:58:50;100961.13;;;18.33;88.04
17260;BME280;8746;49.230;9.220;2022-10-18T10:01:34;100960.44;;;18.92;87.03
17260;BME280;8746;49.230;9.220;2022-10-18T10:04:00;100965.66;;;19.10;86.45
17260;BME280;8746;49.230;9.220;2022-10-18T10:06:30;100967.56;;;19.08;86.01
17260;BME280;8746;49.230;9.220;2022-10-18T10:09:00;100959.56;;;19.08;84.34
17260;BME280;8746;49.230;9.220;2022-10-18T10:11:26;100961.72;;;19.46;83.02
17260;BME280;8746;49.230;9.220;2022-10-18T10:14:17;100956.13;;;19.20;84.09
17260;BME280;8746;49.230;9.220;2022-10-18T10:16:59;100970.47;;;18.72;86.93
17260;BME280;8746;49.230;9.220;2022-10-18T10:19:36;100971.03;;;18.31;86.23
17260;BME280;8746;49.230;9.220;2022-10-18T10:24:33;100980.59;;;18.35;88.27
17260;BME280;8746;49.230;9.220;2022-10-18T10:27:02;100977.84;;;18.37;88.61
17260;BME280;8746;49.230;9.220;2022-10-18T10:32:14;100974.38;;;18.51;87.57
17260;BME280;8746;49.230;9.220;2022-10-18T10:34:39;100977.38;;;18.61;86.09
17260;BME280;8746;49.230;9.220;2022-10-18T10:37:32;100976.25;;;19.42;83.60
17260;BME280;8746;49.230;9.220;2022-10-18T10:40:09;100975.50;;;19.54;82.33
17260;BME280;8746;49.230;9.220;2022-10-18T10:45:15;100982.88;;;19.20;83.26
17260;BME280;8746;49.230;9.220;2022-10-18T10:47:41;100989.25;;;18.87;82.67
17260;BME280;8746;49.230;9.220;2022-10-18T10:50:11;100980.84;;;18.47;85.71
17260;BME280;8746;49.230;9.220;2022-10-18T10:52:37;100973.97;;;18.26;86.25
17260;BME280;8746;49.230;9.220;2022-10-18T10:55:05;100983.53;;;18.31;86.83
17260;BME280;8746;49.230;9.220;2022-10-18T10:57:42;100977.94;;;18.35;87.13
17260;BME280;8746;49.230;9.220;2022-10-18T11:00:39;100980.38;;;18.70;85.82
17260;BME280;8746;49.230;9.220;2022-10-18T11:03:17;100972.38;;;19.31;82.37
17260;BME280;8746;49.230;9.220;2022-10-18T11:05:46;100964.22;;;20.07;79.98
17260;BME280;8746;49.230;9.220;2022-10-18T11:08:16;100965.69;;;20.25;77.75
17260;BME280;8746;49.230;9.220;2022-10-18T11:13:48;100955.25;;;20.35;77.03
17260;BME280;8746;49.230;9.220;2022-10-18T11:16:35;100953.72;;;20.58;77.32
17260;BME280;8746;49.230;9.220;2022-10-18T11:19:14;100952.13;;;20.69;75.10
17260;BME280;8746;49.230;9.220;2022-10-18T11:21:44;100957.25;;;20.59;76.17
17260;BME280;8746;49.230;9.220;2022-10-18T11:24:14;100956.59;;;20.55;75.33
17260;BME280;8746;49.230;9.220;2022-10-18T11:42:34;100950.44;;;19.84;80.04
17260;BME280;8746;49.230;9.220;2022-10-18T11:50:11;100951.19;;;19.43;80.31
17260;BME280;8746;49.230;9.220;2022-10-18T11:55:59;100958.63;;;19.37;80.54
17260;BME280;8746;49.230;9.220;2022-10-18T11:58:41;100949.25;;;19.30;80.58
17260;BME280;8746;49.230;9.220;2022-10-18T12:01:36;100945.38;;;19.50;79.30
17260;BME280;8746;49.230;9.220;2022-10-18T12:04:16;100942.41;;;19.55;78.86
17260;BME280;8746;49.230;9.220;2022-10-18T12:06:45;100942.50;;;19.53;79.35
17260;BME280;8746;49.230;9.220;2022-10-18T12:09:45;100937.63;;;19.46;79.25
17260;BME280;8746;49.230;9.220;2022-10-18T12:12:15;100941.47;;;19.42;80.57
17260;BME280;8746;49.230;9.220;2022-10-18T12:14:48;100944.22;;;19.40;81.15
17260;BME280;8746;49.230;9.220;2022-10-18T12:17:19;100934.72;;;19.20;81.58
17260;BME280;8746;49.230;9.220;2022-10-18T12:19:48;100941.53;;;19.26;81.26
17260;BME280;8746;49.230;9.220;2022-10-18T12:22:26;100927.84;;;19.30;81.15
17260;BME280;8746;49.230;9.220;2022-10-18T12:24:52;100927.59;;;19.64;79.15
17260;BME280;8746;49.230;9.220;2022-10-18T12:27:28;100934.69;;;19.65;79.18
17260;BME280;8746;49.230;9.220;2022-10-18T12:30:02;100933.53;;;19.83;79.10
17260;BME280;8746;49.230;9.220;2022-10-18T12:32:33;100934.38;;;19.84;77.38
17260;BME280;8746;49.230;9.220;2022-10-18T12:35:05;100930.72;;;19.70;77.88
17260;BME280;8746;49.230;9.220;2022-10-18T12:37:49;100920.59;;;19.76;77.08
17260;BME280;8746;49.230;9.220;2022-10-18T12:40:35;100922.25;;;19.64;77.06
17260;BME280;8746;49.230;9.220;2022-10-18T12:43:08;100918.88;;;19.31;78.38
17260;BME280;8746;49.230;9.220;2022-10-18T12:45:47;100924.03;;;19.20;78.38
17260;BME280;8746;49.230;9.220;2022-10-18T12:51:06;100920.63;;;19.61;77.34
17260;BME280;8746;49.230;9.220;2022-10-18T12:53:36;100928.06;;;19.85;75.65
17260;BME280;8746;49.230;9.220;2022-10-18T13:14:57;100918.50;;;19.95;75.88
17260;BME280;8746;49.230;9.220;2022-10-18T13:17:43;100912.38;;;20.08;76.70
17260;BME280;8746;49.230;9.220;2022-10-18T13:23:03;100907.13;;;20.33;75.32
17260;BME280;8746;49.230;9.220;2022-10-18T13:34:24;100921.78;;;19.86;77.15
17260;BME280;8746;49.230;9.220;2022-10-18T13:37:00;100915.06;;;19.93;76.58
17260;BME280;8746;49.230;9.220;2022-10-18T13:39:26;100921.00;;;19.84;77.63
17260;BME280;8746;49.230;9.220;2022-10-18T13:44:28;100927.97;;;19.86;76.92
17260;BME280;8746;49.230;9.220;2022-10-18T13:52:40;100913.25;;;19.94;76.35
17260;BME280;8746;49.230;9.220;2022-10-18T14:03:37;100931.13;;;19.35;77.53
17260;BME280;8746;49.230;9.220;2022-10-18T14:06:15;100924.63;;;19.40;77.76
17260;BME280;8746;49.230;9.220;2022-10-18T14:09:11;100927.19;;;19.41;77.53
17260;BME280;8746;49.230;9.220;2022-10-18T14:14:27;100932.94;;;19.35;79.48
17260;BME280;8746;49.230;9.220;2022-10-18T14:22:17;100926.94;;;19.60;77.95
17260;BME280;8746;49.230;9.220;2022-10-18T14:24:48;100931.13;;;19.64;78.17
17260;BME280;8746;49.230;9.220;2022-10-18T14:29:42;100935.13;;;19.57;76.65
17260;BME280;8746;49.230;9.220;2022-10-18T14:32:09;100940.47;;;19.43;78.02
17260;BME280;8746;49.230;9.220;2022-10-18T14:34:35;100945.81;;;19.43;77.25
17260;BME280;8746;49.230;9.220;2022-10-18T14:37:01;100949.09;;;19.48;76.50
17260;BME280;8746;49.230;9.220;2022-10-18T14:39:27;100941.16;;;19.46;75.85
17260;BME280;8746;49.230;9.220;2022-10-18T14:41:57;100941.44;;;19.56;75.71
17260;BME280;8746;49.230;9.220;2022-10-18T14:44:27;100938.03;;;19.68;75.49
17260;BME280;8746;49.230;9.220;2022-10-18T14:47:03;100948.91;;;19.51;76.20
17260;BME280;8746;49.230;9.220;2022-10-18T14:49:44;100946.31;;;19.49;76.14
17260;BME280;8746;49.230;9.220;2022-10-18T14:52:23;100943.84;;;19.61;76.47
17260;BME280;8746;49.230;9.220;2022-10-18T14:54:50;100944.50;;;19.50;77.24
17260;BME280;8746;49.230;9.220;2022-10-18T14:57:22;100942.47;;;19.39;78.01
17260;BME280;8746;49.230;9.220;2022-10-18T14:59:54;100936.56;;;19.48;77.75
17260;BME280;8746;49.230;9.220;2022-10-18T15:02:27;100941.63;;;19.38;77.78
17260;BME280;8746;49.230;9.220;2022-10-18T15:04:58;100949.66;;;19.38;77.88
17260;BME280;8746;49.230;9.220;2022-10-18T15:07:29;100941.81;;;19.50;78.31
17260;BME280;8746;49.230;9.220;2022-10-18T15:09:57;100947.56;;;19.44;77.73
17260;BME280;8746;49.230;9.220;2022-10-18T15:12:24;100935.59;;;19.35;78.71